Time;durP1;ratioP1;P1;durP2;ratioP2;P2;SDS_P1;SDS_P2;PMS_P1;PMS_P2;Temp;Humidity;BMP_temperature;BMP_pressure;BME280_temperature;BME280_humidity;BME280_pressure;Samples;Min_cycle;Max_cycle;Signal;HPM_P1;HPM_P2
2022/11/11 00:00:39;;;;;;;25.85;20.35;;;;;;;8.71;100.00;99109.59;1801422;79;20933;-59
2022/11/11 00:03:24;;;;;;;27.55;21.97;;;;;;;8.69;100.00;99119.18;1801244;79;20900;-59
2022/11/11 00:06:14;;;;;;;29.95;22.35;;;;;;;8.67;100.00;99126.64;1801352;79;21030;-60
2022/11/11 00:09:01;;;;;;;29.48;20.82;;;;;;;8.66;100.00;99121.56;1801245;79;20904;-58
2022/11/11 00:11:46;;;;;;;23.55;18.95;;;;;;;8.64;100.00;99120.48;1801357;79;20888;-58
2022/11/11 00:14:33;;;;;;;28.62;21.75;;;;;;;8.69;100.00;99123.73;1801279;79;20936;-58
2022/11/11 00:26:30;;;;;;;29.12;23.02;;;;;;;8.70;100.00;99130.67;1801188;79;20974;-60
2022/11/11 00:29:15;;;;;;;26.63;21.60;;;;;;;8.71;100.00;99125.63;1801548;79;20915;-60
2022/11/11 00:41:19;;;;;;;29.65;23.60;;;;;;;8.67;100.00;99135.17;1801332;79;20852;-60
2022/11/11 00:44:04;;;;;;;30.88;21.87;;;;;;;8.67;100.00;99133.84;1801245;79;20935;-60
2022/11/11 00:52:57;;;;;;;31.45;22.37;;;;;;;8.63;100.00;99146.09;1801443;79;21098;-60
2022/11/11 00:55:43;;;;;;;32.42;21.45;;;;;;;8.62;100.00;99141.82;1801570;79;21368;-59
2022/11/11 00:58:29;;;;;;;28.65;22.27;;;;;;;8.62;100.00;99142.60;1801463;79;21669;-60
2022/11/11 01:01:15;;;;;;;31.60;22.22;;;;;;;8.62;100.00;99143.16;1801543;79;20899;-60
2022/11/11 01:04:00;;;;;;;26.85;22.20;;;;;;;8.63;100.00;99147.42;1801419;79;20899;-60
2022/11/11 01:06:47;;;;;;;28.77;21.27;;;;;;;8.63;100.00;99145.56;1801309;79;21698;-59
2022/11/11 01:09:32;;;;;;;29.27;20.73;;;;;;;8.64;100.00;99147.72;1801813;79;21434;-60
2022/11/11 01:12:17;;;;;;;27.62;22.48;;;;;;;8.65;100.00;99145.30;1801450;79;20960;-60
2022/11/11 01:15:03;;;;;;;32.97;22.97;;;;;;;8.63;100.00;99146.90;1801651;79;20939;-59
2022/11/11 01:17:49;;;;;;;27.90;21.27;;;;;;;8.66;100.00;99144.27;1801276;79;21030;-60
2022/11/11 01:20:36;;;;;;;27.93;20.60;;;;;;;8.70;100.00;99145.37;1801560;79;25142;-60
2022/11/11 01:23:22;;;;;;;30.30;21.97;;;;;;;8.69;100.00;99143.22;1801282;79;21518;-60
2022/11/11 01:26:15;;;;;;;27.70;21.05;;;;;;;8.69;100.00;99145.89;1801412;79;20925;-59
2022/11/11 01:29:00;;;;;;;28.25;20.77;;;;;;;8.70;100.00;99143.51;1801469;79;20974;-59
2022/11/11 01:31:45;;;;;;;25.62;20.12;;;;;;;8.70;100.00;99148.85;1801793;79;21390;-60
2022/11/11 01:34:30;;;;;;;35.15;23.32;;;;;;;8.70;100.00;99152.05;1801529;79;21223;-60
2022/11/11 01:37:16;;;;;;;32.28;22.80;;;;;;;8.66;100.00;99147.75;1801482;79;20852;-60
2022/11/11 01:40:03;;;;;;;28.07;20.40;;;;;;;8.66;100.00;99159.77;1801526;79;20892;-60
2022/11/11 01:42:55;;;;;;;30.48;20.23;;;;;;;8.64;100.00;99156.54;1801354;79;21038;-60
2022/11/11 01:45:51;;;;;;;30.65;22.48;;;;;;;8.64;100.00;99155.73;1801400;79;21023;-60
2022/11/11 01:51:56;;;;;;;30.20;22.27;;;;;;;8.63;100.00;99156.77;1801518;79;21459;-60
2022/11/11 01:54:53;;;;;;;29.82;21.48;;;;;;;8.61;100.00;99154.88;1801334;79;20892;-59
2022/11/11 01:57:56;;;;;;;31.68;21.77;;;;;;;8.60;100.00;99157.27;1801337;79;20959;-58
2022/11/11 02:00:41;;;;;;;29.18;22.40;;;;;;;8.62;100.00;99163.19;1801371;79;20896;-58
2022/11/11 02:03:26;;;;;;;;;;;;;;;8.64;100.00;99159.73;1804044;79;21231;-59
2022/11/11 02:06:11;;;;;;;29.63;21.57;;;;;;;8.65;100.00;99161.33;1806870;79;20434;-58
2022/11/11 02:08:56;;;;;;;27.48;22.35;;;;;;;8.64;100.00;99161.07;1818777;79;20883;-58
2022/11/11 02:14:51;;;;;;;30.45;23.32;;;;;;;8.67;100.00;99165.89;1818720;79;20889;-58
2022/11/11 02:17:37;;;;;;;29.57;23.27;;;;;;;8.70;100.00;99175.56;1818686;79;21457;-58
2022/11/11 02:20:26;;;;;;;29.25;22.05;;;;;;;8.67;100.00;99172.05;1818594;79;20895;-58
2022/11/11 02:23:38;;;;;;;29.98;22.42;;;;;;;8.66;100.00;99174.45;1818904;79;20935;-59
2022/11/11 02:26:23;;;;;;;34.33;24.25;;;;;;;8.67;100.00;99169.38;1818693;79;20911;-58
2022/11/11 02:29:12;;;;;;;33.00;23.75;;;;;;;8.66;100.00;99169.63;1818880;79;20847;-58
2022/11/11 02:31:57;;;;;;;32.42;21.77;;;;;;;8.67;100.00;99165.89;1818642;79;21996;-58
2022/11/11 02:34:42;;;;;;;29.12;22.77;;;;;;;8.69;100.00;99171.81;1770815;79;20887;-58
2022/11/11 02:37:27;;;;;;;31.30;22.55;;;;;;;8.67;100.00;99176.05;1818856;79;20922;-58
2022/11/11 02:40:17;;;;;;;29.80;23.75;;;;;;;8.66;100.00;99178.46;1818839;79;20977;-58
2022/11/11 02:43:03;;;;;;;31.15;23.10;;;;;;;8.66;100.00;99183.80;1818667;79;20985;-58
2022/11/11 02:45:48;;;;;;;;;;;;;;;8.65;100.00;99180.03;1821437;79;21102;-58
2022/11/11 02:48:34;;;;;;;32.80;24.52;;;;;;;8.66;100.00;99179.80;1818805;78;20112;-58
2022/11/11 02:51:19;;;;;;;32.65;25.52;;;;;;;8.69;100.00;99181.16;1818808;79;20934;-58
2022/11/11 02:54:04;;;;;;;31.82;24.98;;;;;;;8.72;100.00;99176.64;1818821;79;21454;-58
2022/11/11 02:57:08;;;;;;;26.73;22.37;;;;;;;8.71;100.00;99179.05;1818848;79;20946;-58
2022/11/11 02:59:53;;;;;;;28.90;22.73;;;;;;;8.72;100.00;99176.64;1818685;79;21069;-58
2022/11/11 03:02:39;;;;;;;;;;;;;;;8.73;100.00;99174.26;1821345;79;21006;-58
2022/11/11 03:05:24;;;;;;;34.92;24.87;;;;;;;8.75;100.00;99181.49;1818597;79;20112;-58
2022/11/11 03:08:09;;;;;;;31.57;23.98;;;;;;;8.73;100.00;99184.95;1816221;79;20976;-58
2022/11/11 03:10:54;;;;;;;35.00;22.93;;;;;;;8.71;100.00;99183.87;1816391;79;21403;-58
2022/11/11 03:13:40;;;;;;;30.35;22.58;;;;;;;8.68;100.00;99184.87;1816234;79;21207;-58
2022/11/11 03:19:30;;;;;;;31.62;23.52;;;;;;;8.62;100.00;99196.57;1816279;79;21460;-58
2022/11/11 03:22:15;;;;;;;27.42;21.87;;;;;;;8.61;100.00;99192.27;1816080;79;20940;-59
2022/11/11 03:28:08;;;;;;;32.20;22.48;;;;;;;8.60;100.00;99215.49;1815960;79;21894;-58
2022/11/11 03:30:52;;;;;;;30.82;24.40;;;;;;;8.61;100.00;99202.43;1816024;79;20930;-59
2022/11/11 03:33:39;;;;;;;29.75;22.40;;;;;;;8.62;100.00;99215.27;1816079;79;20951;-59
2022/11/11 03:38:14;;;;;;;28.70;21.97;;;;;;;8.64;100.00;99211.81;1816307;79;20903;-58
2022/11/11 03:39:11;;;;;;;29.18;24.07;;;;;;;8.63;100.00;99210.19;1816109;79;20927;-59
2022/11/11 03:41:57;;;;;;;32.42;22.82;;;;;;;8.58;100.00;99197.58;1816417;79;21951;-59
2022/11/11 03:44:42;;;;;;;28.02;22.82;;;;;;;8.58;100.00;99207.45;1815942;79;20923;-59
2022/11/11 03:47:27;;;;;;;30.90;23.47;;;;;;;8.59;100.00;99209.08;1816046;79;20879;-59
2022/11/11 03:50:12;;;;;;;35.20;23.73;;;;;;;8.61;100.00;99205.63;1816076;79;20974;-59
2022/11/11 03:52:57;;;;;;;31.65;23.40;;;;;;;8.60;100.00;99205.33;1816228;79;20925;-58
2022/11/11 03:55:42;;;;;;;32.95;22.77;;;;;;;8.62;100.00;99217.94;1816052;79;21101;-58
2022/11/11 03:58:27;;;;;;;31.40;22.90;;;;;;;8.62;100.00;99227.28;1816122;79;20880;-58
2022/11/11 04:10:21;;;;;;;30.62;24.12;;;;;;;8.56;100.00;99230.92;1816409;79;21505;-58
2022/11/11 04:10:22;;;;;;;29.77;21.57;;;;;;;8.50;100.00;99226.03;1818615;79;21114;-58
2022/11/11 04:16:12;;;;;;;31.33;23.55;;;;;;;8.47;100.00;99235.89;1818619;79;20935;-58
2022/11/11 04:22:01;;;;;;;36.88;25.10;;;;;;;8.47;100.00;99233.74;1818846;79;20989;-58
2022/11/11 04:29:27;;;;;;;32.00;24.02;;;;;;;8.50;100.00;99241.27;1818656;79;21492;-58
2022/11/11 04:30:38;;;;;;;32.90;23.73;;;;;;;8.50;100.00;99243.39;1818782;79;21371;-58
2022/11/11 04:33:23;;;;;;;28.70;23.63;;;;;;;8.46;100.00;99243.61;1819036;79;20914;-58
2022/11/11 04:36:08;;;;;;;32.10;24.90;;;;;;;8.46;100.00;99246.28;1818995;79;20855;-58
2022/11/11 04:41:58;;;;;;;32.03;23.10;;;;;;;8.39;100.00;99255.52;1818737;79;20883;-58
2022/11/11 04:48:06;;;;;;;31.97;23.73;;;;;;;8.36;100.00;99257.36;1818938;79;21438;-58
2022/11/11 04:50:51;;;;;;;32.78;24.15;;;;;;;8.36;100.00;99264.03;1818811;79;20990;-58
2022/11/11 04:53:36;;;;;;;32.28;23.98;;;;;;;8.35;100.00;99258.40;1819058;79;21968;-58
2022/11/11 04:59:25;;;;;;;28.40;23.47;;;;;;;8.25;100.00;99272.38;1819182;79;20843;-58
2022/11/11 05:05:15;;;;;;;31.15;23.73;;;;;;;8.11;100.00;99279.91;1818777;79;20855;-59
2022/11/11 05:11:04;;;;;;;29.48;23.60;;;;;;;8.05;100.00;99273.41;1801338;79;20852;-59
2022/11/11 05:23:04;;;;;;;24.00;18.30;;;;;;;7.87;100.00;99297.63;1801418;79;21173;-59
2022/11/11 05:25:49;;;;;;;26.73;18.67;;;;;;;7.84;100.00;99297.61;1801594;79;20967;-58
2022/11/11 05:28:35;;;;;;;23.85;16.93;;;;;;;7.81;100.00;99295.42;1801514;79;20873;-58
2022/11/11 05:31:20;;;;;;;25.27;17.35;;;;;;;7.81;100.00;99298.08;1801501;79;20967;-58
2022/11/11 05:34:06;;;;;;;25.23;17.25;;;;;;;7.82;100.00;99307.69;1801716;79;21399;-59
2022/11/11 05:36:51;;;;;;;22.87;16.77;;;;;;;7.85;100.00;99303.21;1801506;79;21094;-60
2022/11/11 05:39:36;;;;;;;22.73;16.87;;;;;;;7.87;100.00;99305.11;1801460;79;20911;-59
2022/11/11 05:42:21;;;;;;;27.17;17.57;;;;;;;7.87;100.00;99303.78;1797816;78;20948;-60
2022/11/11 05:45:08;;;;;;;23.80;16.90;;;;;;;7.91;100.00;99310.79;1775771;80;20947;-59
2022/11/11 05:47:53;;;;;;;21.97;18.12;;;;;;;7.95;100.00;99318.06;1776015;80;21609;-59
2022/11/11 05:50:41;;;;;;;23.12;16.15;;;;;;;7.96;100.00;99319.67;1776253;80;21240;-59
2022/11/11 05:53:27;;;;;;;23.55;15.43;;;;;;;7.97;100.00;99316.48;1775690;80;20955;-59
2022/11/11 05:56:14;;;;;;;20.62;15.63;;;;;;;7.97;100.00;99318.63;1775320;80;20993;-59
2022/11/11 05:58:59;;;;;;;23.60;16.90;;;;;;;8.02;100.00;99328.58;1776117;80;20959;-59
2022/11/11 06:01:45;;;;;;;22.90;16.45;;;;;;;8.02;100.00;99324.06;1776270;80;20916;-59
2022/11/11 06:04:30;;;;;;;21.97;15.23;;;;;;;8.04;100.00;99329.95;1776422;80;21479;-59
2022/11/11 06:07:16;;;;;;;21.27;15.35;;;;;;;8.01;100.00;99329.09;1779934;79;20861;-58
2022/11/11 06:10:29;;;;;;;22.80;16.43;;;;;;;8.01;100.00;99335.77;1792807;80;20908;-59
2022/11/11 06:15:52;;;;;;;23.47;16.35;;;;;;;7.98;100.00;99336.27;1792252;80;21513;-59
2022/11/11 06:18:38;;;;;;;18.85;14.10;;;;;;;7.95;100.00;99335.41;1792002;80;21014;-59
2022/11/11 06:21:24;;;;;;;18.82;13.95;;;;;;;7.94;100.00;99333.78;1792249;80;20872;-60
2022/11/11 06:24:09;;;;;;;21.00;15.13;;;;;;;7.93;100.00;99336.18;1792912;80;20872;-59
2022/11/11 06:26:54;;;;;;;20.77;15.93;;;;;;;7.95;100.00;99343.93;1792688;80;21262;-59
2022/11/11 06:29:39;;;;;;;22.60;15.35;;;;;;;7.96;100.00;99349.02;1792601;80;21426;-60
2022/11/11 06:32:25;;;;;;;24.20;14.87;;;;;;;7.97;100.00;99345.31;1792819;80;21126;-59
2022/11/11 06:35:10;;;;;;;26.95;16.07;;;;;;;7.97;100.00;99350.65;1792619;80;20998;-60
2022/11/11 06:37:55;;;;;;;23.20;17.60;;;;;;;7.99;100.00;99351.21;1792760;79;20880;-60
2022/11/11 06:40:41;;;;;;;23.67;16.02;;;;;;;8.03;100.00;99355.56;1792631;80;21493;-60
2022/11/11 06:43:28;;;;;;;22.82;16.27;;;;;;;8.03;100.00;99353.67;1792915;80;21407;-60
2022/11/11 06:46:19;;;;;;;23.02;17.35;;;;;;;8.08;100.00;99360.95;1793024;79;21407;-61
2022/11/11 06:49:07;;;;;;;25.85;16.75;;;;;;;8.09;100.00;99359.40;1792597;80;20880;-61
2022/11/11 06:51:53;;;;;;;28.25;17.15;;;;;;;8.09;100.00;99362.07;1792773;80;21489;-61
2022/11/11 06:54:39;;;;;;;21.77;15.08;;;;;;;8.08;100.00;99367.63;1793008;80;21450;-59
2022/11/11 06:57:25;;;;;;;25.52;16.32;;;;;;;8.04;100.00;99368.65;1792826;79;21398;-59
2022/11/11 07:00:12;;;;;;;22.62;18.05;;;;;;;8.01;100.00;99366.45;1806972;78;21456;-60
2022/11/11 07:02:57;;;;;;;26.15;17.05;;;;;;;8.00;100.00;99379.53;1811158;78;21437;-60
2022/11/11 07:05:43;;;;;;;23.38;16.20;;;;;;;8.00;100.00;99372.86;1811156;77;20965;-60
2022/11/11 07:08:31;;;;;;;29.10;16.42;;;;;;;8.01;100.00;99375.80;1823914;78;21069;-59
2022/11/11 07:11:16;;;;;;;25.85;17.45;;;;;;;8.00;100.00;99375.52;1821580;78;20971;-59
2022/11/11 07:14:01;;;;;;;26.17;17.25;;;;;;;8.04;100.00;99390.00;1821856;78;21102;-59
2022/11/11 07:16:50;;;;;;;26.68;17.60;;;;;;;8.04;100.00;99392.66;1790886;80;21029;-60
2022/11/11 07:19:36;;;;;;;26.37;17.10;;;;;;;7.99;100.00;99393.91;1792408;80;20919;-60
2022/11/11 07:22:21;;;;;;;25.60;16.82;;;;;;;7.94;100.00;99396.47;1805491;78;27969;-59
2022/11/11 07:25:07;;;;;;;27.42;16.60;;;;;;;7.95;100.00;99413.30;1822657;78;20940;-59
2022/11/11 07:27:59;;;;;;;23.50;16.52;;;;;;;7.98;100.00;99413.65;1822703;78;20924;-59
2022/11/11 07:30:46;;;;;;;23.00;15.80;;;;;;;8.01;100.00;99407.81;1822891;78;20838;-59
2022/11/11 07:33:31;;;;;;;22.25;16.42;;;;;;;8.04;100.00;99415.34;1807625;78;21127;-60
2022/11/11 07:36:20;;;;;;;;;;;;;;;8.06;100.00;99413.25;1824361;78;21463;-59
2022/11/11 07:39:11;;;;;;;26.33;17.07;;;;;;;8.07;100.00;99413.55;1815569;78;20123;-59
2022/11/11 07:42:00;;;;;;;26.50;16.82;;;;;;;8.06;100.00;99417.25;1824144;78;21519;-59
2022/11/11 07:44:48;;;;;;;24.95;17.07;;;;;;;8.08;100.00;99421.81;1821978;77;21018;-59
2022/11/11 07:47:48;;;;;;;27.67;18.23;;;;;;;8.08;100.00;99427.16;1811682;78;21043;-59
2022/11/11 07:50:39;;;;;;;27.30;18.37;;;;;;;8.06;100.00;99423.10;1810984;78;20939;-59
2022/11/11 07:53:42;;;;;;;28.07;19.15;;;;;;;7.99;100.00;99427.25;1745924;80;21057;-59
2022/11/11 07:56:31;;;;;;;28.23;18.37;;;;;;;7.94;100.00;99428.49;1800543;78;21240;-59
2022/11/11 07:59:53;;;;;;;27.73;18.52;;;;;;;7.93;100.00;99434.89;1806994;78;20959;-58
2022/11/11 08:02:48;;;;;;;27.52;17.60;;;;;;;7.98;100.00;99430.99;1817746;78;20940;-59
2022/11/11 08:05:34;;;;;;;;;;;;;;;8.02;100.00;99428.13;1819437;79;47898;-58
2022/11/11 08:08:23;;;;;;;22.65;16.93;;;;;;;8.06;100.00;99435.92;1818162;76;20069;-59
2022/11/11 08:11:07;;;;;;;26.33;17.73;;;;;;;8.08;100.00;99437.02;1817770;78;20993;-58
2022/11/11 08:13:52;;;;;;;22.98;15.95;;;;;;;8.13;100.00;99435.25;1817256;79;21021;-59
2022/11/11 08:16:37;;;;;;;21.52;15.35;;;;;;;8.15;100.00;99438.49;1815315;78;21085;-60
2022/11/11 08:19:22;;;;;;;22.25;15.25;;;;;;;8.18;100.00;99443.36;1809443;78;21041;-59
2022/11/11 08:22:07;;;;;;;24.77;15.25;;;;;;;8.21;100.00;99432.21;1787759;79;21673;-59
2022/11/11 08:24:52;;;;;;;23.57;15.77;;;;;;;8.27;100.00;99433.67;1803083;77;21110;-61
2022/11/11 08:27:39;;;;;;;21.50;15.35;;;;;;;8.34;100.00;99431.66;1852868;77;20943;-59
2022/11/11 08:30:24;;;;;;;24.07;15.25;;;;;;;8.40;100.00;99439.51;1818483;78;20936;-59
2022/11/11 08:33:15;;;;;;;23.25;15.95;;;;;;;8.41;100.00;99429.64;1820503;78;26523;-61
2022/11/11 08:36:06;;;;;;;23.50;15.80;;;;;;;8.42;100.00;99427.24;1818845;78;21458;-60
2022/11/11 08:38:57;;;;;;;23.65;15.75;;;;;;;8.44;100.00;99430.48;1817632;78;21715;-60
2022/11/11 08:41:51;;;;;;;22.80;15.45;;;;;;;8.45;100.00;99430.25;1820726;78;21680;-58
2022/11/11 08:44:41;;;;;;;24.92;17.15;;;;;;;8.52;100.00;99435.43;1821388;78;21431;-60
2022/11/11 08:47:28;;;;;;;20.80;16.40;;;;;;;8.59;100.00;99429.41;1819381;78;21102;-60
2022/11/11 08:50:15;;;;;;;20.55;16.27;;;;;;;8.65;100.00;99425.75;1823444;78;21064;-60
2022/11/11 08:53:07;;;;;;;19.92;15.83;;;;;;;8.75;100.00;99427.25;1817807;77;27649;-60
2022/11/11 08:55:56;;;;;;;23.83;16.37;;;;;;;8.82;100.00;99427.90;1818207;77;20965;-60
2022/11/11 08:58:49;;;;;;;21.10;16.35;;;;;;;8.87;100.00;99434.66;1816014;78;21248;-60
2022/11/11 09:01:47;;;;;;;22.32;14.40;;;;;;;8.88;100.00;99430.39;1824165;78;21411;-61
2022/11/11 09:04:35;;;;;;;19.02;12.70;;;;;;;8.87;100.00;99426.64;1813411;77;20995;-57
2022/11/11 09:07:20;;;;;;;18.98;12.40;;;;;;;8.91;100.00;99418.41;1799054;78;21094;-59
2022/11/11 09:10:08;;;;;;;17.25;13.28;;;;;;;8.94;100.00;99408.58;1810865;78;21131;-59
2022/11/11 09:12:58;;;;;;;17.02;13.15;;;;;;;8.98;100.00;99420.91;1802283;78;21042;-58
2022/11/11 09:15:44;;;;;;;17.65;13.35;;;;;;;8.95;100.00;99411.52;1801425;79;21043;-59
2022/11/11 09:18:34;;;;;;;21.70;13.18;;;;;;;8.97;100.00;99421.98;1804739;79;20967;-59
2022/11/11 09:21:19;;;;;;;16.80;13.40;;;;;;;8.93;100.00;99404.27;1804827;77;21518;-58
2022/11/11 09:24:05;;;;;;;22.35;13.93;;;;;;;8.92;100.00;99412.03;1800076;79;21676;-59
2022/11/11 09:26:50;;;;;;;19.87;14.15;;;;;;;8.94;100.00;99408.06;1830599;78;20936;-60
2022/11/11 09:29:36;;;;;;;16.82;13.28;;;;;;;8.96;100.00;99407.80;1815906;77;21537;-62
2022/11/11 09:32:22;;;;;;;17.73;13.05;;;;;;;8.94;100.00;99398.70;1775949;80;20960;-60
2022/11/11 09:35:08;;;;;;;19.80;13.72;;;;;;;8.98;100.00;99395.00;1791412;79;21098;-60
2022/11/11 09:37:58;;;;;;;21.45;14.63;;;;;;;9.05;100.00;99396.97;1807412;78;20913;-60
2022/11/11 09:40:57;;;;;;;19.77;13.83;;;;;;;9.10;100.00;99393.03;1806659;78;21023;-61
2022/11/11 09:44:02;;;;;;;20.12;13.13;;;;;;;9.14;100.00;99392.81;1805212;78;20966;-61
2022/11/11 09:47:06;;;;;;;18.48;13.72;;;;;;;9.24;100.00;99388.13;1805607;79;20885;-61
2022/11/11 09:50:13;;;;;;;20.40;13.83;;;;;;;9.38;100.00;99387.52;1796859;79;21050;-59
2022/11/11 09:53:21;;;;;;;20.17;14.23;;;;;;;9.52;100.00;99391.44;1801307;79;20999;-59
2022/11/11 09:56:10;;;;;;;22.60;14.55;;;;;;;9.62;100.00;99391.56;1807107;78;20915;-59
2022/11/11 09:59:13;;;;;;;25.85;15.20;;;;;;;9.67;99.29;99392.67;1790795;77;21431;-59
2022/11/11 10:01:58;;;;;;;21.30;14.47;;;;;;;9.68;98.66;99388.41;1775302;77;21099;-59
2022/11/11 10:05:01;;;;;;;20.62;14.53;;;;;;;9.65;98.20;99392.94;1805805;79;21491;-59
2022/11/11 10:08:11;;;;;;;20.02;13.98;;;;;;;9.61;98.49;99388.60;1723281;79;21058;-61
2022/11/11 10:10:59;;;;;;;21.90;13.90;;;;;;;9.67;97.99;99394.02;1803754;77;21004;-60
2022/11/11 10:13:45;;;;;;;18.85;12.55;;;;;;;9.72;97.71;99390.06;1820722;77;20900;-60
2022/11/11 10:16:49;;;;;;;16.65;11.22;;;;;;;9.73;96.82;99388.47;1818113;78;21470;-60
2022/11/11 10:19:41;;;;;;;17.15;11.43;;;;;;;9.78;96.26;99387.71;1805086;78;21213;-58
2022/11/11 10:22:41;;;;;;;13.60;10.82;;;;;;;9.88;95.57;99384.63;1824191;78;20926;-60
2022/11/11 10:25:28;;;;;;;18.05;11.38;;;;;;;9.97;93.54;99388.98;1824779;78;20835;-61
2022/11/11 10:28:23;;;;;;;18.07;11.88;;;;;;;9.90;93.14;99385.70;1825547;78;20955;-59
2022/11/11 10:31:15;;;;;;;16.50;11.48;;;;;;;9.81;92.02;99385.88;1825795;78;21049;-58
2022/11/11 10:34:10;;;;;;;15.25;11.73;;;;;;;9.67;92.64;99390.81;1825186;77;21170;-59
2022/11/11 10:36:56;;;;;;;19.15;12.23;;;;;;;9.60;92.56;99388.34;1818690;77;20959;-63
2022/11/11 10:40:13;;;;;;;14.07;11.88;;;;;;;9.54;92.94;99387.98;1835005;77;20908;-58
2022/11/11 10:43:01;;;;;;;15.08;10.28;;;;;;;9.52;93.09;99386.61;1820817;77;20999;-60
2022/11/11 10:46:01;;;;;;;14.63;10.58;;;;;;;9.51;93.17;99383.16;1822852;77;21061;-63
2022/11/11 10:49:00;;;;;;;15.23;10.75;;;;;;;9.59;93.44;99379.20;1809377;77;21070;-61
2022/11/11 10:51:54;;;;;;;21.52;11.85;;;;;;;9.70;93.21;99376.13;1811515;77;21399;-60
2022/11/11 10:54:53;;;;;;;18.15;11.63;;;;;;;9.84;93.50;99369.33;1817476;78;21035;-61
2022/11/11 10:57:59;;;;;;;17.00;10.23;;;;;;;10.08;93.02;99374.66;1833091;77;21017;-59
2022/11/11 11:00:45;;;;;;;16.45;11.08;;;;;;;10.13;92.49;99372.04;1859947;77;21096;-59
2022/11/11 11:03:38;;;;;;;19.52;11.35;;;;;;;10.06;92.09;99380.25;1842933;77;21103;-58
2022/11/11 11:06:29;;;;;;;18.05;11.15;;;;;;;9.99;91.98;99377.49;1845753;77;20931;-61
2022/11/11 11:09:58;;;;;;;20.85;11.93;;;;;;;9.91;92.35;99373.95;1820313;77;20985;-59
2022/11/11 11:12:50;;;;;;;;;;;;;;;9.91;92.43;99375.29;1813464;77;22204;-60
2022/11/11 11:15:39;;;;;;;15.72;10.10;;;;;;;10.02;92.66;99377.81;1808645;77;20103;-60
2022/11/11 11:18:25;;;;;;;14.20;10.38;;;;;;;10.09;92.46;99369.56;1796407;77;21114;-61
2022/11/11 11:21:11;;;;;;;17.37;11.03;;;;;;;10.10;92.23;99371.20;1809598;77;21002;-61
2022/11/11 11:23:57;;;;;;;14.87;10.15;;;;;;;10.10;91.85;99368.52;1797383;77;20828;-61
2022/11/11 11:26:48;;;;;;;15.10;9.48;;;;;;;10.14;91.76;99373.67;1800216;79;21799;-58
2022/11/11 11:29:38;;;;;;;16.02;9.93;;;;;;;10.21;92.03;99364.89;1819470;77;21016;-59
2022/11/11 11:32:29;;;;;;;18.25;10.90;;;;;;;10.30;91.52;99371.40;1804502;77;21113;-60
2022/11/11 11:35:38;;;;;;;18.57;10.23;;;;;;;10.35;91.12;99371.44;1818081;77;21405;-60
2022/11/11 11:38:40;;;;;;;16.17;9.55;;;;;;;10.34;91.20;99372.50;1815249;77;21014;-61
2022/11/11 11:41:43;;;;;;;14.35;8.93;;;;;;;10.35;91.46;99369.29;1810299;77;21011;-60
2022/11/11 11:44:31;;;;;;;15.95;9.05;;;;;;;10.45;91.40;99363.50;1793671;78;21032;-59
2022/11/11 11:47:35;;;;;;;14.23;9.35;;;;;;;10.71;91.21;99361.28;1807026;78;21144;-60
2022/11/11 11:50:45;;;;;;;13.93;9.30;;;;;;;10.90;89.55;99363.80;1806360;79;21053;-59
2022/11/11 11:53:43;;;;;;;17.25;10.32;;;;;;;10.94;88.53;99359.55;1804438;79;20902;-62
2022/11/11 11:56:41;;;;;;;16.52;10.40;;;;;;;10.84;87.57;99357.33;1806634;79;20972;-60
2022/11/11 11:59:36;;;;;;;12.37;9.33;;;;;;;10.70;88.01;99354.83;1804276;79;21052;-61
2022/11/11 12:02:42;;;;;;;16.48;11.18;;;;;;;10.64;88.53;99351.32;1805860;79;21092;-59
2022/11/11 12:05:45;;;;;;;14.43;10.75;;;;;;;10.62;88.71;99349.96;1795370;78;20946;-60
2022/11/11 12:08:57;;;;;;;15.08;10.30;;;;;;;10.66;88.82;99349.19;1805279;78;21452;-62
2022/11/11 12:11:59;;;;;;;17.57;10.58;;;;;;;10.69;88.84;99345.97;1806783;78;20886;-61
2022/11/11 12:15:05;;;;;;;18.35;9.95;;;;;;;10.69;88.75;99343.84;1793974;77;21012;-61
2022/11/11 12:18:36;;;;;;;14.45;9.33;;;;;;;10.69;88.73;99342.51;1813310;77;20969;-60
2022/11/11 12:21:25;;;;;;;13.18;8.78;;;;;;;10.69;88.82;99345.97;1815275;78;20953;-60
2022/11/11 12:24:28;;;;;;;14.60;9.68;;;;;;;10.67;88.75;99351.34;1817854;78;21514;-59
2022/11/11 12:27:21;;;;;;;17.70;9.38;;;;;;;10.68;88.75;99362.31;1833982;77;21005;-60
2022/11/11 12:30:13;;;;;;;16.32;9.28;;;;;;;10.72;88.92;99361.54;1831198;78;21021;-59
2022/11/11 12:33:08;;;;;;;14.93;8.85;;;;;;;10.82;89.20;99361.62;1820231;77;21094;-60
2022/11/11 12:36:21;;;;;;;17.23;8.23;;;;;;;10.89;88.75;99353.34;1819432;77;21031;-61
2022/11/11 12:39:21;;;;;;;11.43;8.00;;;;;;;10.92;88.73;99349.62;1815579;77;21450;-59
2022/11/11 12:42:27;;;;;;;14.68;8.80;;;;;;;10.94;88.48;99347.48;1807598;78;20949;-58
2022/11/11 12:45:22;;;;;;;14.23;10.20;;;;;;;10.98;88.56;99347.76;1823502;77;21046;-61
2022/11/11 12:48:53;;;;;;;16.27;10.40;;;;;;;10.94;87.16;99340.78;1817736;77;21105;-60
2022/11/11 12:52:05;;;;;;;16.57;9.90;;;;;;;10.81;87.39;99343.13;1786350;80;21503;-61
2022/11/11 12:55:14;;;;;;;15.68;10.32;;;;;;;10.66;87.93;99344.36;1818864;77;20993;-60
2022/11/11 12:58:19;;;;;;;14.55;10.43;;;;;;;10.60;88.46;99342.16;1813140;77;21263;-60
2022/11/11 13:01:35;;;;;;;16.80;11.00;;;;;;;10.60;88.94;99347.52;1785773;78;20929;-60
2022/11/11 13:04:30;;;;;;;;;;;;;;;10.63;89.01;99332.28;1809140;78;21108;-60
2022/11/11 13:07:48;;;;;;;14.70;9.60;;;;;;;10.67;89.16;99328.01;1836491;77;20127;-60
2022/11/11 13:10:53;;;;;;;13.05;9.63;;;;;;;10.65;89.49;99314.59;1822765;77;20910;-60
2022/11/11 13:13:59;;;;;;;13.78;9.38;;;;;;;10.63;89.78;99311.37;1811429;78;22158;-59
2022/11/11 13:16:44;;;;;;;15.78;10.25;;;;;;;10.56;89.95;99334.90;1818137;77;20963;-61
2022/11/11 13:19:47;;;;;;;16.95;10.25;;;;;;;10.45;90.36;99334.56;1821208;78;21243;-59
2022/11/11 13:22:33;;;;;;;19.70;10.65;;;;;;;10.34;90.77;99336.89;1812889;78;20925;-59
2022/11/11 13:25:22;;;;;;;13.38;9.25;;;;;;;10.31;91.30;99342.23;1817641;77;20989;-58
2022/11/11 13:28:33;;;;;;;15.08;9.50;;;;;;;10.27;91.65;99347.80;1814725;78;20952;-59
2022/11/11 13:31:33;;;;;;;15.28;9.13;;;;;;;10.26;92.04;99348.88;1815805;77;21004;-59
2022/11/11 13:34:19;;;;;;;14.83;9.55;;;;;;;10.29;92.21;99351.05;1826209;77;22047;-60
2022/11/11 13:37:06;;;;;;;13.15;9.50;;;;;;;10.33;92.41;99350.00;1819012;77;20884;-61
2022/11/11 13:39:51;;;;;;;17.85;11.12;;;;;;;10.35;92.51;99339.30;1819809;78;20904;-61
2022/11/11 13:42:40;;;;;;;15.25;9.15;;;;;;;10.34;92.26;99340.36;1824737;77;20896;-60
2022/11/11 13:45:38;;;;;;;13.35;8.88;;;;;;;10.32;92.09;99340.36;1813324;77;20885;-59
2022/11/11 13:48:36;;;;;;;12.33;8.93;;;;;;;10.31;91.96;99340.89;1825746;77;21229;-60
2022/11/11 13:51:48;;;;;;;17.70;9.13;;;;;;;10.32;91.88;99349.18;1807025;78;20994;-59
2022/11/11 13:54:40;;;;;;;15.00;9.35;;;;;;;10.33;91.86;99332.06;1817084;77;20918;-60
2022/11/11 13:57:27;;;;;;;13.93;9.70;;;;;;;10.33;91.75;99325.37;1810534;77;20880;-60
2022/11/11 14:00:23;;;;;;;15.05;9.38;;;;;;;10.33;91.74;99324.03;1821395;78;20947;-61
2022/11/11 14:03:25;;;;;;;15.78;8.50;;;;;;;10.33;91.53;99330.72;1846986;77;27624;-60
2022/11/11 14:06:21;;;;;;;14.05;9.40;;;;;;;10.30;91.34;99339.27;1849849;77;20897;-60
2022/11/11 14:09:07;;;;;;;12.88;9.00;;;;;;;10.27;91.34;99333.88;1826871;78;20987;-59
2022/11/11 14:11:55;;;;;;;;;;;;;;;10.26;91.38;99334.15;1837722;77;21046;-59
2022/11/11 14:14:46;;;;;;;12.95;8.95;;;;;;;10.26;91.45;99328.80;1831284;77;20134;-59
2022/11/11 14:17:31;;;;;;;19.23;9.85;;;;;;;10.27;91.85;99331.73;1856043;77;21147;-60
2022/11/11 14:20:40;;;;;;;14.43;8.43;;;;;;;10.26;91.66;99328.27;1856801;77;20896;-59
2022/11/11 14:23:33;;;;;;;12.55;8.20;;;;;;;10.24;91.52;99324.23;1856700;77;21477;-60
2022/11/11 14:26:24;;;;;;;16.05;10.68;;;;;;;10.20;91.53;99313.20;1856786;77;20944;-58
2022/11/11 14:29:17;;;;;;;14.73;8.98;;;;;;;10.16;91.82;99323.34;1856485;77;21018;-59
2022/11/11 14:32:28;;;;;;;13.62;8.15;;;;;;;10.12;91.56;99320.91;1856081;77;21214;-59